Time;durP1;ratioP1;P1;durP2;ratioP2;P2;SDS_P1;SDS_P2;PMS_P1;PMS_P2;Temp;Humidity;BMP_temperature;BMP_pressure;BME280_temperature;BME280_humidity;BME280_pressure;Samples;Min_cycle;Max_cycle;Signal;HPM_P1;HPM_P2
2023/05/24 00:00:41;;;;;;;;;;;18.70;99.90;;;;;;4824865;29;19934;-76
2023/05/24 00:03:09;;;;;;;;;;;18.80;99.90;;;;;;4822965;29;20027;-76
2023/05/24 00:05:36;;;;;;;;;;;18.80;99.90;;;;;;4831100;29;19935;-76
2023/05/24 00:08:04;;;;;;;;;;;18.70;99.90;;;;;;4830063;29;19996;-76
2023/05/24 00:10:31;;;;;;;;;;;18.60;99.90;;;;;;4820043;29;20396;-76
2023/05/24 00:12:58;;;;;;;;;;;18.60;99.90;;;;;;4815740;29;19936;-76
2023/05/24 00:15:25;;;;;;;;;;;18.60;99.90;;;;;;4820234;29;19963;-76
2023/05/24 00:17:52;;;;;;;;;;;18.70;99.90;;;;;;4837071;29;19948;-76
2023/05/24 00:20:19;;;;;;;;;;;18.80;99.90;;;;;;4836022;29;19939;-76
2023/05/24 00:22:47;;;;;;;;;;;18.80;99.90;;;;;;4822772;29;19935;-76
2023/05/24 00:25:14;;;;;;;;;;;18.70;99.90;;;;;;4832456;29;22741;-76
2023/05/24 00:27:41;;;;;;;;;;;18.70;99.90;;;;;;4831307;29;19960;-76
2023/05/24 00:30:08;;;;;;;;;;;18.70;99.90;;;;;;4833608;29;20024;-76
2023/05/24 00:32:35;;;;;;;;;;;18.70;99.90;;;;;;4832163;29;19932;-76
2023/05/24 00:35:02;;;;;;;;;;;18.80;99.90;;;;;;4813556;29;19935;-76
2023/05/24 00:37:30;;;;;;;;;;;18.70;99.90;;;;;;4824433;29;19936;-76
2023/05/24 00:39:57;;;;;;;;;;;18.60;99.90;;;;;;4841360;29;19932;-76
2023/05/24 00:42:24;;;;;;;;;;;18.60;99.90;;;;;;4840074;29;20074;-76
2023/05/24 00:44:51;;;;;;;;;;;18.50;99.90;;;;;;4817139;29;20055;-76
2023/05/24 00:47:18;;;;;;;;;;;18.60;99.90;;;;;;4842516;29;22651;-76
2023/05/24 00:49:45;;;;;;;;;;;18.60;99.90;;;;;;4818998;29;19936;-76
2023/05/24 00:52:12;;;;;;;;;;;18.60;99.90;;;;;;4846314;29;19960;-76
2023/05/24 00:54:40;;;;;;;;;;;18.60;99.90;;;;;;4814087;29;19997;-76
2023/05/24 00:57:07;;;;;;;;;;;18.50;99.90;;;;;;4814919;29;19937;-76
2023/05/24 00:59:34;;;;;;;;;;;18.50;99.90;;;;;;4822909;29;19951;-76
2023/05/24 01:02:03;;;;;;;;;;;18.50;99.90;;;;;;4830080;29;22578;-76
2023/05/24 01:04:33;;;;;;;;;;;18.50;99.90;;;;;;4827684;29;19928;-76
2023/05/24 01:07:12;;;;;;;;;;;18.50;99.90;;;;;;4811482;29;19928;-76
2023/05/24 01:09:46;;;;;;;;;;;18.50;99.90;;;;;;4808816;29;20063;-76
2023/05/24 01:12:24;;;;;;;;;;;18.40;99.90;;;;;;4836428;29;20063;-76
2023/05/24 01:14:55;;;;;;;;;;;18.30;99.90;;;;;;4826384;29;19943;-76
2023/05/24 01:17:25;;;;;;;;;;;18.30;99.90;;;;;;4819576;29;20072;-76
2023/05/24 01:19:55;;;;;;;;;;;18.30;99.90;;;;;;4840670;29;20004;-76
2023/05/24 01:22:41;;;;;;;;;;;18.30;99.90;;;;;;4827075;29;19940;-76
2023/05/24 01:25:15;;;;;;;;;;;18.30;99.90;;;;;;4825879;29;19967;-76
2023/05/24 01:27:43;;;;;;;;;;;18.30;99.90;;;;;;4837755;29;19932;-76
2023/05/24 01:30:10;;;;;;;;;;;18.30;99.90;;;;;;4817172;29;19928;-76
2023/05/24 01:32:38;;;;;;;;;;;18.30;99.90;;;;;;4822158;29;19935;-76
2023/05/24 01:35:05;;;;;;;;;;;18.20;99.90;;;;;;4824781;29;20954;-76
2023/05/24 01:37:32;;;;;;;;;;;18.20;99.90;;;;;;4814813;29;19928;-76
2023/05/24 01:39:59;;;;;;;;;;;18.20;99.90;;;;;;4817938;29;20052;-76
2023/05/24 01:42:47;;;;;;;;;;;18.20;99.90;;;;;;4828466;29;19932;-76
2023/05/24 01:45:21;;;;;;;;;;;18.10;99.90;;;;;;4838811;29;19929;-76
2023/05/24 01:48:03;;;;;;;;;;;18.10;99.90;;;;;;4826799;29;22661;-76
2023/05/24 01:50:31;;;;;;;;;;;18.00;99.90;;;;;;4807106;29;19936;-76
2023/05/24 01:53:02;;;;;;;;;;;18.00;99.90;;;;;;4836376;29;19936;-76
2023/05/24 01:55:31;;;;;;;;;;;18.10;99.90;;;;;;4822951;29;20278;-76
2023/05/24 01:58:00;;;;;;;;;;;18.00;99.90;;;;;;4829427;29;19932;-76
2023/05/24 02:00:28;;;;;;;;;;;18.10;99.90;;;;;;4808136;29;19929;-76
2023/05/24 02:02:56;;;;;;;;;;;18.00;99.90;;;;;;4824937;29;19939;-76
2023/05/24 02:05:24;;;;;;;;;;;18.00;99.90;;;;;;4831677;29;22115;-76
2023/05/24 02:07:51;;;;;;;;;;;17.90;99.90;;;;;;4831157;29;20684;-76
2023/05/24 02:10:18;;;;;;;;;;;17.80;99.90;;;;;;4829669;29;20801;-76
2023/05/24 02:12:45;;;;;;;;;;;17.80;99.90;;;;;;4822479;29;19928;-76
2023/05/24 02:15:13;;;;;;;;;;;17.60;99.90;;;;;;4835027;29;19977;-76
2023/05/24 02:17:41;;;;;;;;;;;17.50;99.90;;;;;;4842482;29;19944;-76
2023/05/24 02:20:09;;;;;;;;;;;17.70;99.90;;;;;;4829937;29;19936;-76
2023/05/24 02:22:37;;;;;;;;;;;17.70;99.90;;;;;;4823928;29;20291;-76
2023/05/24 02:25:05;;;;;;;;;;;17.80;99.90;;;;;;4838714;29;20011;-76
2023/05/24 02:27:32;;;;;;;;;;;17.70;99.90;;;;;;4814438;29;20473;-76
2023/05/24 02:29:59;;;;;;;;;;;17.70;99.90;;;;;;4836370;29;19932;-76
2023/05/24 02:32:26;;;;;;;;;;;17.70;99.90;;;;;;4818324;29;19992;-76
2023/05/24 02:34:53;;;;;;;;;;;17.60;99.90;;;;;;4830156;29;22685;-76
2023/05/24 02:37:20;;;;;;;;;;;17.50;99.90;;;;;;4833015;29;19932;-76
2023/05/24 02:39:47;;;;;;;;;;;17.40;99.90;;;;;;4830680;29;20080;-76
2023/05/24 02:42:14;;;;;;;;;;;17.30;99.90;;;;;;4825389;29;19977;-76
2023/05/24 02:44:41;;;;;;;;;;;17.30;99.90;;;;;;4831923;29;19928;-76
2023/05/24 02:47:08;;;;;;;;;;;17.30;99.90;;;;;;4810496;29;19936;-76
2023/05/24 02:49:35;;;;;;;;;;;17.20;99.90;;;;;;4830868;29;19939;-76
2023/05/24 02:52:03;;;;;;;;;;;17.20;99.90;;;;;;4831874;29;19928;-76
2023/05/24 02:54:29;;;;;;;;;;;17.20;99.90;;;;;;4839469;29;19943;-76
2023/05/24 02:56:57;;;;;;;;;;;17.20;99.90;;;;;;4820087;29;19928;-76
2023/05/24 02:59:24;;;;;;;;;;;17.20;99.90;;;;;;4826104;29;19967;-76
2023/05/24 03:01:51;;;;;;;;;;;17.20;99.90;;;;;;4830057;29;20074;-76
2023/05/24 03:04:18;;;;;;;;;;;17.20;99.90;;;;;;4814858;29;20027;-76
2023/05/24 03:06:46;;;;;;;;;;;17.20;99.90;;;;;;4814491;29;19928;-76
2023/05/24 03:09:15;;;;;;;;;;;17.20;99.90;;;;;;4807167;29;19937;-76
2023/05/24 03:11:43;;;;;;;;;;;17.20;99.90;;;;;;4828459;29;20407;-76
2023/05/24 03:14:10;;;;;;;;;;;17.20;99.90;;;;;;4827239;29;19984;-76
2023/05/24 03:16:40;;;;;;;;;;;17.30;99.90;;;;;;4816608;29;20766;-76
2023/05/24 03:19:07;;;;;;;;;;;17.30;99.90;;;;;;4831796;29;20732;-76
2023/05/24 03:21:36;;;;;;;;;;;17.20;99.90;;;;;;4827205;29;19943;-76
2023/05/24 03:24:04;;;;;;;;;;;17.20;99.90;;;;;;4830934;29;20027;-77
2023/05/24 03:26:31;;;;;;;;;;;17.20;99.90;;;;;;4832047;29;20465;-77
2023/05/24 03:28:58;;;;;;;;;;;17.20;99.90;;;;;;4839998;29;19932;-76
2023/05/24 03:31:32;;;;;;;;;;;17.30;99.90;;;;;;4824019;29;19936;-76
2023/05/24 03:33:59;;;;;;;;;;;17.40;99.90;;;;;;4813617;29;19928;-76
2023/05/24 03:36:27;;;;;;;;;;;17.50;99.90;;;;;;4829871;29;20400;-76
2023/05/24 03:38:57;;;;;;;;;;;17.50;99.90;;;;;;4840129;29;20304;-76
2023/05/24 03:41:26;;;;;;;;;;;17.50;99.90;;;;;;4837998;29;19972;-76
2023/05/24 03:43:57;;;;;;;;;;;17.50;99.90;;;;;;4815080;29;20035;-76
2023/05/24 03:46:26;;;;;;;;;;;17.50;99.90;;;;;;4817291;29;19936;-76
2023/05/24 03:48:54;;;;;;;;;;;17.50;99.90;;;;;;4816021;29;20387;-76
2023/05/24 03:51:28;;;;;;;;;;;17.50;99.90;;;;;;4816854;29;20368;-76
2023/05/24 03:53:56;;;;;;;;;;;17.50;99.90;;;;;;4815650;29;19932;-76
2023/05/24 03:56:25;;;;;;;;;;;17.60;99.90;;;;;;4819557;29;19947;-76
2023/05/24 03:58:52;;;;;;;;;;;17.60;99.90;;;;;;4838920;29;20053;-75
2023/05/24 04:01:19;;;;;;;;;;;17.50;99.90;;;;;;4826216;29;19935;-76
2023/05/24 04:04:00;;;;;;;;;;;17.60;99.90;;;;;;4814672;29;20405;-76
2023/05/24 04:06:28;;;;;;;;;;;17.70;99.90;;;;;;4821071;29;19936;-76
2023/05/24 04:08:57;;;;;;;;;;;17.50;99.90;;;;;;4832353;29;20053;-76
2023/05/24 04:11:27;;;;;;;;;;;17.40;99.90;;;;;;4829479;29;19935;-75
2023/05/24 04:13:59;;;;;;;;;;;17.50;99.90;;;;;;4832185;29;20154;-76
2023/05/24 04:16:27;;;;;;;;;;;17.60;99.90;;;;;;4814628;29;19928;-75
2023/05/24 04:18:56;;;;;;;;;;;17.60;99.90;;;;;;4818088;29;19936;-75
2023/05/24 04:21:23;;;;;;;;;;;17.60;99.90;;;;;;4812518;29;20020;-76
2023/05/24 04:23:51;;;;;;;;;;;17.60;99.90;;;;;;4833238;29;19932;-75
2023/05/24 04:26:20;;;;;;;;;;;17.60;99.90;;;;;;4818982;29;20031;-76
2023/05/24 04:28:47;;;;;;;;;;;17.60;99.90;;;;;;4833569;29;19976;-76
2023/05/24 04:31:15;;;;;;;;;;;17.70;99.90;;;;;;4828225;29;19936;-76
2023/05/24 04:33:42;;;;;;;;;;;17.60;99.90;;;;;;4813288;29;19932;-76
2023/05/24 04:36:10;;;;;;;;;;;17.70;99.90;;;;;;4822326;29;19937;-76
2023/05/24 04:38:38;;;;;;;;;;;17.70;99.90;;;;;;4808328;29;20105;-76
2023/05/24 04:41:05;;;;;;;;;;;17.70;99.90;;;;;;4824484;29;20013;-76
2023/05/24 04:43:35;;;;;;;;;;;17.70;99.90;;;;;;4811623;29;19936;-76
2023/05/24 04:46:02;;;;;;;;;;;17.80;99.90;;;;;;4819615;29;19932;-77
2023/05/24 04:48:29;;;;;;;;;;;18.00;99.90;;;;;;4827031;29;19951;-76
2023/05/24 04:50:57;;;;;;;;;;;18.10;99.90;;;;;;4837749;29;19935;-76
2023/05/24 04:53:24;;;;;;;;;;;18.20;99.90;;;;;;4843574;29;19948;-77
2023/05/24 04:55:51;;;;;;;;;;;18.20;99.90;;;;;;4830976;29;19939;-76
2023/05/24 04:58:18;;;;;;;;;;;18.10;99.90;;;;;;4828021;29;19932;-76
2023/05/24 05:00:46;;;;;;;;;;;18.20;99.90;;;;;;4821207;29;22639;-76
2023/05/24 05:03:12;;;;;;;;;;;18.30;99.90;;;;;;4829173;29;19983;-76
2023/05/24 05:05:40;;;;;;;;;;;18.40;99.90;;;;;;4843158;29;19970;-76
2023/05/24 05:08:07;;;;;;;;;;;18.50;99.90;;;;;;4837817;29;20014;-76
2023/05/24 05:10:34;;;;;;;;;;;18.50;99.90;;;;;;4840943;29;20155;-76
2023/05/24 05:13:01;;;;;;;;;;;18.50;99.90;;;;;;4824706;29;19963;-76
2023/05/24 05:15:29;;;;;;;;;;;18.60;99.90;;;;;;4803629;29;19943;-76
2023/05/24 05:17:56;;;;;;;;;;;18.70;99.90;;;;;;4814251;29;19939;-76
2023/05/24 05:20:24;;;;;;;;;;;18.70;99.90;;;;;;4828823;29;21876;-76
2023/05/24 05:22:51;;;;;;;;;;;18.80;99.90;;;;;;4816199;29;19943;-78
2023/05/24 05:25:18;;;;;;;;;;;18.60;99.90;;;;;;4828019;29;19936;-78
2023/05/24 05:27:45;;;;;;;;;;;18.50;99.90;;;;;;4827644;29;19937;-76
2023/05/24 05:30:12;;;;;;;;;;;18.50;99.90;;;;;;4844425;29;19928;-77
2023/05/24 05:32:39;;;;;;;;;;;18.50;99.90;;;;;;4817571;29;19967;-77
2023/05/24 05:35:07;;;;;;;;;;;18.70;99.90;;;;;;4829670;29;19928;-76
2023/05/24 05:37:34;;;;;;;;;;;18.70;99.90;;;;;;4841238;29;19964;-76
2023/05/24 05:40:01;;;;;;;;;;;18.70;99.90;;;;;;4836728;29;19939;-77
2023/05/24 05:42:28;;;;;;;;;;;18.70;99.90;;;;;;4815783;29;19932;-77
2023/05/24 05:44:56;;;;;;;;;;;18.80;99.90;;;;;;4816708;29;19940;-76
2023/05/24 05:47:22;;;;;;;;;;;18.70;99.90;;;;;;4832493;29;24144;-77
2023/05/24 05:49:49;;;;;;;;;;;18.60;99.90;;;;;;4835185;29;20027;-77
2023/05/24 05:52:16;;;;;;;;;;;18.80;99.90;;;;;;4835186;29;19932;-78
2023/05/24 05:54:43;;;;;;;;;;;19.00;99.90;;;;;;4824005;29;22557;-76
2023/05/24 05:57:10;;;;;;;;;;;19.40;99.90;;;;;;4784500;29;19936;-76
2023/05/24 05:59:37;;;;;;;;;;;19.50;99.90;;;;;;4787609;29;19996;-77
2023/05/24 06:02:05;;;;;;;;;;;19.50;99.90;;;;;;4815626;29;20540;-77
2023/05/24 06:04:33;;;;;;;;;;;19.20;99.90;;;;;;4796965;29;20343;-76
2023/05/24 06:07:00;;;;;;;;;;;19.10;99.90;;;;;;4776652;29;20048;-77
2023/05/24 06:09:27;;;;;;;;;;;19.00;99.90;;;;;;4785233;29;20058;-78
2023/05/24 06:11:54;;;;;;;;;;;19.00;99.90;;;;;;4790452;29;19943;-76
2023/05/24 06:14:23;;;;;;;;;;;19.20;99.90;;;;;;4798699;29;19943;-79
2023/05/24 06:16:53;;;;;;;;;;;19.30;99.90;;;;;;4777401;29;20488;-77
2023/05/24 06:19:20;;;;;;;;;;;19.30;99.90;;;;;;4794778;29;20533;-77
2023/05/24 06:21:48;;;;;;;;;;;19.30;99.90;;;;;;4781202;29;20404;-77
2023/05/24 06:24:20;;;;;;;;;;;19.10;99.90;;;;;;4767286;29;19937;-76
2023/05/24 06:26:51;;;;;;;;;;;19.10;99.90;;;;;;4770665;29;19936;-78
2023/05/24 06:29:19;;;;;;;;;;;19.40;99.90;;;;;;4780309;29;20567;-76
2023/05/24 06:31:47;;;;;;;;;;;19.50;99.90;;;;;;4773684;29;20022;-76
2023/05/24 06:34:19;;;;;;;;;;;19.70;99.90;;;;;;4771263;29;19937;-77
2023/05/24 06:36:49;;;;;;;;;;;19.80;99.90;;;;;;4790052;29;19943;-76
2023/05/24 06:39:17;;;;;;;;;;;19.80;99.90;;;;;;4781929;29;19943;-78
2023/05/24 06:41:45;;;;;;;;;;;19.70;99.90;;;;;;4783749;29;20689;-76
2023/05/24 06:44:13;;;;;;;;;;;19.80;99.90;;;;;;4784889;29;19969;-78
2023/05/24 06:46:40;;;;;;;;;;;19.80;99.90;;;;;;4774007;29;20463;-79
2023/05/24 06:49:07;;;;;;;;;;;19.90;99.90;;;;;;4771404;29;19936;-78
2023/05/24 06:51:35;;;;;;;;;;;20.30;99.90;;;;;;4791884;29;19936;-77
2023/05/24 06:54:02;;;;;;;;;;;20.60;99.90;;;;;;4773434;29;20647;-76
2023/05/24 06:56:30;;;;;;;;;;;20.50;99.90;;;;;;4793978;29;19940;-78
2023/05/24 06:58:57;;;;;;;;;;;20.70;99.90;;;;;;4786120;29;19936;-75
2023/05/24 07:01:24;;;;;;;;;;;20.80;99.10;;;;;;4804300;29;19936;-78
2023/05/24 07:03:51;;;;;;;;;;;20.90;99.40;;;;;;4766499;29;20083;-77
2023/05/24 07:06:18;;;;;;;;;;;21.10;99.50;;;;;;4796016;29;19937;-77
2023/05/24 07:08:45;;;;;;;;;;;21.00;98.10;;;;;;4788690;29;20032;-76
2023/05/24 07:11:12;;;;;;;;;;;20.90;97.80;;;;;;4772382;29;19989;-77
2023/05/24 07:13:39;;;;;;;;;;;21.10;98.00;;;;;;4810871;29;19932;-76
2023/05/24 07:16:06;;;;;;;;;;;21.10;97.70;;;;;;4780607;29;20081;-75
2023/05/24 07:18:33;;;;;;;;;;;21.10;96.70;;;;;;4800621;29;19936;-77
2023/05/24 07:21:00;;;;;;;;;;;21.40;97.30;;;;;;4787752;29;19932;-77
2023/05/24 07:23:27;;;;;;;;;;;21.60;97.60;;;;;;4825156;29;19929;-78
2023/05/24 07:25:54;;;;;;;;;;;21.70;96.40;;;;;;4775302;29;19943;-77
2023/05/24 07:28:21;;;;;;;;;;;21.50;96.00;;;;;;4799577;29;19936;-79
2023/05/24 07:30:48;;;;;;;;;;;21.60;95.90;;;;;;4781140;29;19936;-78
2023/05/24 07:33:16;;;;;;;;;;;21.80;95.70;;;;;;4798662;29;19936;-77
2023/05/24 07:35:44;;;;;;;;;;;21.50;96.10;;;;;;4793894;29;19936;-77
2023/05/24 07:38:11;;;;;;;;;;;21.50;96.20;;;;;;4782169;29;22213;-76
2023/05/24 07:40:38;;;;;;;;;;;21.60;96.10;;;;;;4782030;29;19947;-77
2023/05/24 07:43:06;;;;;;;;;;;21.90;95.50;;;;;;4780642;29;19991;-78
2023/05/24 07:45:33;;;;;;;;;;;21.80;94.60;;;;;;4771762;29;19937;-77
2023/05/24 07:48:00;;;;;;;;;;;21.70;94.50;;;;;;4776670;29;19962;-77
2023/05/24 07:50:28;;;;;;;;;;;21.90;94.80;;;;;;4803815;29;19936;-77
2023/05/24 07:52:58;;;;;;;;;;;22.10;95.20;;;;;;4794426;29;19936;-75
2023/05/24 07:55:26;;;;;;;;;;;21.90;94.40;;;;;;4790740;29;20080;-77
2023/05/24 07:57:53;;;;;;;;;;;22.00;93.90;;;;;;4772346;29;19936;-76
2023/05/24 08:00:21;;;;;;;;;;;22.10;94.50;;;;;;4785522;29;19936;-76
2023/05/24 08:02:49;;;;;;;;;;;22.10;93.40;;;;;;4769733;29;20510;-77
2023/05/24 08:05:16;;;;;;;;;;;21.90;93.40;;;;;;4814801;29;20666;-76
2023/05/24 08:07:44;;;;;;;;;;;22.00;93.40;;;;;;4812210;29;19929;-77
2023/05/24 08:10:12;;;;;;;;;;;22.10;93.60;;;;;;4778383;29;20496;-77
2023/05/24 08:12:41;;;;;;;;;;;21.90;93.60;;;;;;4807670;29;19935;-79
2023/05/24 08:15:08;;;;;;;;;;;21.70;93.50;;;;;;4796217;29;19942;-77
2023/05/24 08:17:38;;;;;;;;;;;21.70;94.10;;;;;;4790880;29;19937;-78
2023/05/24 08:20:12;;;;;;;;;;;21.80;93.80;;;;;;4768237;29;19943;-77
2023/05/24 08:22:40;;;;;;;;;;;21.60;93.60;;;;;;4802934;29;19936;-77
2023/05/24 08:25:07;;;;;;;;;;;21.40;94.50;;;;;;4786013;29;19936;-77
2023/05/24 08:27:34;;;;;;;;;;;21.60;95.40;;;;;;4803264;29;20709;-77
2023/05/24 08:30:03;;;;;;;;;;;21.40;94.60;;;;;;4799798;29;19947;-77
2023/05/24 08:32:31;;;;;;;;;;;21.40;95.70;;;;;;4800272;29;20453;-77
2023/05/24 08:34:58;;;;;;;;;;;21.50;95.50;;;;;;4803280;29;21295;-79
2023/05/24 08:37:45;;;;;;;;;;;21.80;94.50;;;;;;4781359;29;19944;-76
2023/05/24 08:40:12;;;;;;;;;;;22.10;93.80;;;;;;4797508;29;20393;-77
2023/05/24 08:42:40;;;;;;;;;;;22.50;92.90;;;;;;4778504;29;20712;-78
2023/05/24 08:45:08;;;;;;;;;;;22.60;92.60;;;;;;4803712;29;19928;-78
2023/05/24 08:47:35;;;;;;;;;;;22.80;91.90;;;;;;4792055;29;20497;-77
2023/05/24 08:50:03;;;;;;;;;;;22.80;92.10;;;;;;4799342;29;19936;-79
2023/05/24 08:52:31;;;;;;;;;;;22.50;92.30;;;;;;4791371;29;21126;-77
2023/05/24 08:54:58;;;;;;;;;;;22.20;93.90;;;;;;4786450;29;20460;-77
2023/05/24 08:57:26;;;;;;;;;;;22.00;93.40;;;;;;4783316;29;20497;-79
2023/05/24 08:59:56;;;;;;;;;;;21.70;93.80;;;;;;4795590;29;19936;-76
2023/05/24 09:02:23;;;;;;;;;;;22.00;93.90;;;;;;4800967;29;19936;-77
2023/05/24 09:04:52;;;;;;;;;;;22.30;92.60;;;;;;4811544;29;20008;-78
2023/05/24 09:07:23;;;;;;;;;;;22.40;92.80;;;;;;4772687;29;19936;-78
2023/05/24 09:09:59;;;;;;;;;;;22.30;92.60;;;;;;4801887;29;19936;-77
2023/05/24 09:12:29;;;;;;;;;;;22.40;92.30;;;;;;4792342;29;19936;-78
2023/05/24 09:15:06;;;;;;;;;;;22.40;92.40;;;;;;4787250;29;23450;-77
2023/05/24 09:17:36;;;;;;;;;;;22.60;92.10;;;;;;4776497;29;19936;-78
2023/05/24 09:20:06;;;;;;;;;;;22.70;92.40;;;;;;4783743;29;22327;-79
2023/05/24 09:22:36;;;;;;;;;;;22.40;91.70;;;;;;4785793;29;20351;-78
2023/05/24 09:25:08;;;;;;;;;;;22.10;91.70;;;;;;4784165;29;19936;-78
2023/05/24 09:27:36;;;;;;;;;;;22.20;91.30;;;;;;4789188;29;19936;-78
2023/05/24 09:30:07;;;;;;;;;;;22.30;91.50;;;;;;4790391;29;19943;-76
2023/05/24 09:32:34;;;;;;;;;;;22.50;90.60;;;;;;4798021;29;19935;-77
2023/05/24 09:35:01;;;;;;;;;;;22.70;91.40;;;;;;4766111;29;20049;-77
2023/05/24 09:37:28;;;;;;;;;;;22.60;90.50;;;;;;4791732;29;20026;-76
2023/05/24 09:39:58;;;;;;;;;;;22.60;91.10;;;;;;4788288;29;19936;-77
2023/05/24 09:42:27;;;;;;;;;;;22.60;91.00;;;;;;4797375;29;19943;-76
2023/05/24 09:45:01;;;;;;;;;;;22.40;90.80;;;;;;4803898;29;20313;-75
2023/05/24 09:47:28;;;;;;;;;;;22.30;91.20;;;;;;4777671;29;20337;-78
2023/05/24 09:49:55;;;;;;;;;;;22.60;90.80;;;;;;4792715;29;19936;-78
2023/05/24 09:52:22;;;;;;;;;;;22.40;90.10;;;;;;4792914;29;20771;-75
2023/05/24 09:54:50;;;;;;;;;;;22.60;90.60;;;;;;4800625;29;19936;-76
2023/05/24 09:57:17;;;;;;;;;;;22.80;90.50;;;;;;4780654;29;19967;-79
2023/05/24 09:59:45;;;;;;;;;;;22.90;90.40;;;;;;4782457;29;19936;-76
2023/05/24 10:02:12;;;;;;;;;;;22.80;90.40;;;;;;4792141;29;19953;-76
2023/05/24 10:04:39;;;;;;;;;;;22.90;90.50;;;;;;4789082;29;19933;-76
2023/05/24 10:07:06;;;;;;;;;;;23.10;90.60;;;;;;4797381;29;20600;-75
2023/05/24 10:09:34;;;;;;;;;;;22.80;89.10;;;;;;4784728;29;19936;-75
2023/05/24 10:12:03;;;;;;;;;;;23.00;89.60;;;;;;4779383;29;19943;-75
2023/05/24 10:14:31;;;;;;;;;;;23.00;89.00;;;;;;4792214;29;19942;-77
2023/05/24 10:16:58;;;;;;;;;;;23.10;87.90;;;;;;4774944;29;20052;-75
2023/05/24 10:19:26;;;;;;;;;;;23.00;85.80;;;;;;4789298;29;19984;-76
2023/05/24 10:21:55;;;;;;;;;;;22.80;86.20;;;;;;4804278;29;20153;-76
2023/05/24 10:24:23;;;;;;;;;;;22.90;86.80;;;;;;4808981;29;19937;-77
2023/05/24 10:26:51;;;;;;;;;;;23.00;85.70;;;;;;4774017;29;19937;-77
2023/05/24 10:29:40;;;;;;;;;;;23.00;85.00;;;;;;4788165;29;20403;-77
2023/05/24 10:32:08;;;;;;;;;;;23.20;86.50;;;;;;4802063;29;20312;-77
2023/05/24 10:34:35;;;;;;;;;;;23.00;86.20;;;;;;4786107;29;19935;-77
2023/05/24 10:37:02;;;;;;;;;;;22.90;87.80;;;;;;4803234;29;20420;-76
2023/05/24 10:39:31;;;;;;;;;;;22.90;87.20;;;;;;4792045;29;19940;-76
2023/05/24 10:42:01;;;;;;;;;;;23.00;88.50;;;;;;4793754;29;19936;-76
2023/05/24 10:44:30;;;;;;;;;;;23.00;87.40;;;;;;4787747;29;20059;-76
2023/05/24 10:47:18;;;;;;;;;;;22.90;87.20;;;;;;4790583;29;19936;-77
2023/05/24 10:49:53;;;;;;;;;;;23.20;88.60;;;;;;4786049;29;19936;-76
2023/05/24 10:52:20;;;;;;;;;;;23.40;88.20;;;;;;4778356;29;19968;-76
2023/05/24 10:55:06;;;;;;;;;;;23.30;85.20;;;;;;4799833;29;19936;-78
2023/05/24 10:57:34;;;;;;;;;;;23.40;84.40;;;;;;4805007;29;20047;-78
2023/05/24 11:00:19;;;;;;;;;;;23.40;85.20;;;;;;4791032;29;19935;-77
2023/05/24 11:03:07;;;;;;;;;;;23.60;85.70;;;;;;4800608;29;19944;-77
2023/05/24 11:05:51;;;;;;;;;;;23.20;84.40;;;;;;4798391;29;20328;-79
2023/05/24 11:08:28;;;;;;;;;;;23.20;84.60;;;;;;4796730;29;20308;-77
2023/05/24 11:11:03;;;;;;;;;;;23.30;85.00;;;;;;4807113;29;19936;-77
2023/05/24 11:13:54;;;;;;;;;;;23.40;83.00;;;;;;4791030;29;20657;-77
2023/05/24 11:16:31;;;;;;;;;;;23.50;84.60;;;;;;4808539;29;19933;-77
2023/05/24 11:19:03;;;;;;;;;;;23.70;83.70;;;;;;4784453;29;19977;-78
2023/05/24 11:21:30;;;;;;;;;;;23.30;83.20;;;;;;4804262;29;20396;-79
2023/05/24 11:23:57;;;;;;;;;;;23.50;84.10;;;;;;4809197;29;20015;-77
2023/05/24 11:26:24;;;;;;;;;;;23.50;82.60;;;;;;4792661;29;19980;-77
2023/05/24 11:28:52;;;;;;;;;;;23.60;82.50;;;;;;4781968;29;20027;-78
2023/05/24 11:31:25;;;;;;;;;;;23.50;81.50;;;;;;4811050;29;22307;-77
2023/05/24 11:33:53;;;;;;;;;;;23.30;83.40;;;;;;4781835;29;20315;-76
2023/05/24 11:36:20;;;;;;;;;;;23.20;85.20;;;;;;4792647;29;19936;-77
2023/05/24 11:38:48;;;;;;;;;;;23.10;84.20;;;;;;4799540;29;19936;-78
2023/05/24 11:41:16;;;;;;;;;;;23.30;84.40;;;;;;4805529;29;19932;-78
2023/05/24 11:43:43;;;;;;;;;;;23.50;83.30;;;;;;4801241;29;20376;-77
2023/05/24 11:46:10;;;;;;;;;;;23.50;83.30;;;;;;4799797;29;19942;-77
2023/05/24 11:48:37;;;;;;;;;;;23.60;84.10;;;;;;4797631;29;19978;-76
2023/05/24 11:51:07;;;;;;;;;;;23.90;81.90;;;;;;4799671;29;20445;-77
2023/05/24 11:53:34;;;;;;;;;;;23.90;79.00;;;;;;4788470;29;20584;-76
2023/05/24 11:56:03;;;;;;;;;;;23.90;79.90;;;;;;4783115;29;19968;-77
2023/05/24 11:58:38;;;;;;;;;;;23.70;81.10;;;;;;4791211;29;19932;-77
2023/05/24 12:01:05;;;;;;;;;;;23.70;80.80;;;;;;4799911;29;19953;-77
2023/05/24 12:03:32;;;;;;;;;;;24.00;81.50;;;;;;4793826;29;19943;-77
2023/05/24 12:06:00;;;;;;;;;;;24.10;80.00;;;;;;4801051;29;20076;-76
2023/05/24 12:08:27;;;;;;;;;;;23.80;80.50;;;;;;4810254;29;19936;-76
2023/05/24 12:10:54;;;;;;;;;;;23.70;80.90;;;;;;4789922;29;20324;-77
2023/05/24 12:13:23;;;;;;;;;;;23.60;80.20;;;;;;4802239;29;20345;-76
2023/05/24 12:15:52;;;;;;;;;;;23.60;80.90;;;;;;4805891;29;20055;-77
2023/05/24 12:18:23;;;;;;;;;;;23.60;80.80;;;;;;4819748;29;19936;-77
2023/05/24 12:20:51;;;;;;;;;;;23.50;82.00;;;;;;4771130;29;22265;-77
2023/05/24 12:23:19;;;;;;;;;;;23.50;81.10;;;;;;4795563;29;19936;-77
2023/05/24 12:25:46;;;;;;;;;;;23.70;81.10;;;;;;4815223;29;19936;-78
2023/05/24 12:28:13;;;;;;;;;;;24.00;79.30;;;;;;4787841;29;19936;-77
2023/05/24 12:30:43;;;;;;;;;;;24.00;78.70;;;;;;4797313;29;19971;-77
2023/05/24 12:33:10;;;;;;;;;;;23.90;80.40;;;;;;4801298;29;19936;-77
2023/05/24 12:35:40;;;;;;;;;;;23.80;80.40;;;;;;4788384;29;19967;-76
2023/05/24 12:38:11;;;;;;;;;;;23.70;81.00;;;;;;4784461;29;19937;-78
2023/05/24 12:40:41;;;;;;;;;;;23.60;82.50;;;;;;4807352;29;20418;-77
2023/05/24 12:43:09;;;;;;;;;;;23.60;81.50;;;;;;4784343;29;20058;-78
2023/05/24 12:45:36;;;;;;;;;;;23.90;80.70;;;;;;4800074;29;19943;-77
2023/05/24 12:48:03;;;;;;;;;;;24.10;80.70;;;;;;4775320;29;20632;-76
2023/05/24 12:50:30;;;;;;;;;;;24.30;83.90;;;;;;4823185;29;19936;-77
2023/05/24 12:52:57;;;;;;;;;;;24.20;81.50;;;;;;4802730;29;20389;-77
2023/05/24 12:55:26;;;;;;;;;;;24.30;81.70;;;;;;4779824;29;19960;-77
2023/05/24 12:57:54;;;;;;;;;;;24.50;82.10;;;;;;4793565;29;19936;-78
2023/05/24 13:00:26;;;;;;;;;;;24.50;79.50;;;;;;4810693;29;19937;-77
2023/05/24 13:02:55;;;;;;;;;;;24.60;79.70;;;;;;4785208;29;20536;-76
2023/05/24 13:05:23;;;;;;;;;;;24.50;78.60;;;;;;4809864;29;19936;-78
2023/05/24 13:07:50;;;;;;;;;;;24.40;78.90;;;;;;4805354;29;19937;-77
2023/05/24 13:10:18;;;;;;;;;;;24.40;80.00;;;;;;4786189;29;20452;-79
2023/05/24 13:12:45;;;;;;;;;;;24.50;79.20;;;;;;4801552;29;21051;-79
2023/05/24 13:15:12;;;;;;;;;;;24.20;78.60;;;;;;4764632;29;20722;-78
2023/05/24 13:17:40;;;;;;;;;;;24.30;79.50;;;;;;4785129;29;20091;-77
2023/05/24 13:20:09;;;;;;;;;;;24.40;80.10;;;;;;4787960;29;22310;-76
2023/05/24 13:22:37;;;;;;;;;;;24.50;79.50;;;;;;4789895;29;20023;-77
2023/05/24 13:25:06;;;;;;;;;;;24.50;80.80;;;;;;4799775;29;20650;-76
2023/05/24 13:27:33;;;;;;;;;;;24.60;80.30;;;;;;4798940;29;19972;-76
2023/05/24 13:30:00;;;;;;;;;;;24.40;78.80;;;;;;4782328;29;19984;-76
2023/05/24 13:32:27;;;;;;;;;;;24.20;79.90;;;;;;4788122;29;19936;-78
2023/05/24 13:34:55;;;;;;;;;;;24.20;78.70;;;;;;4785851;29;19936;-77
2023/05/24 13:37:22;;;;;;;;;;;24.10;78.90;;;;;;4799976;29;19936;-77
2023/05/24 13:39:50;;;;;;;;;;;24.10;78.60;;;;;;4798332;29;19936;-78
2023/05/24 13:42:17;;;;;;;;;;;24.10;77.90;;;;;;4800087;29;19979;-76
2023/05/24 13:44:44;;;;;;;;;;;24.30;78.60;;;;;;4795057;29;20219;-76
2023/05/24 13:47:11;;;;;;;;;;;24.30;78.40;;;;;;4795565;29;19973;-78
2023/05/24 13:49:46;;;;;;;;;;;24.40;78.70;;;;;;4803082;29;19937;-77
2023/05/24 13:52:13;;;;;;;;;;;24.40;79.40;;;;;;4806362;29;20749;-75
2023/05/24 13:54:41;;;;;;;;;;;24.50;78.90;;;;;;4771116;29;19935;-76
2023/05/24 13:57:08;;;;;;;;;;;24.60;78.70;;;;;;4786265;29;19936;-76
2023/05/24 13:59:35;;;;;;;;;;;24.60;78.20;;;;;;4817150;29;20632;-76
2023/05/24 14:02:02;;;;;;;;;;;24.60;78.50;;;;;;4804597;29;20436;-76
2023/05/24 14:04:29;;;;;;;;;;;24.60;78.50;;;;;;4775595;29;19955;-75
2023/05/24 14:06:56;;;;;;;;;;;24.50;78.70;;;;;;4801108;29;19936;-76
2023/05/24 14:09:24;;;;;;;;;;;24.50;79.10;;;;;;4795166;29;19936;-77
2023/05/24 14:11:52;;;;;;;;;;;24.60;79.60;;;;;;4832510;29;19937;-76
2023/05/24 14:14:19;;;;;;;;;;;24.60;79.60;;;;;;4788091;29;19935;-77
2023/05/24 14:17:06;;;;;;;;;;;24.70;79.10;;;;;;4802066;29;19937;-76
2023/05/24 14:19:34;;;;;;;;;;;24.40;78.70;;;;;;4796254;29;19936;-76
2023/05/24 14:22:00;;;;;;;;;;;24.30;77.60;;;;;;4803517;29;19928;-75
2023/05/24 14:24:27;;;;;;;;;;;24.30;77.30;;;;;;4821628;29;19928;-76